Wardle, United Kingdom
Current Conditions -  °F | °C
As of 9:20 AM on Thursday 18 Dec 2014 (Local Time) from EGCC Reporting Station
Light Rain Light Rain  
Wind Chill: 12°   Ceiling: 2400
Heat Index: 12°   Visibility: 4mi
Dew Point: 10°   Wind: 20mph
Humidity: 88%   Direction: 220°SW
Pressure: 29.62"   Gusts: NA
Location:  53.65°N, 2.13°W
Report Text: EGCC 180920Z 22017KT 6000 -RA FEW012 SCT017 BKN024 12/10 Q1003 NOSIG
Loading
Personal Weather Stations






























Interactive Weather Map New forecast layout! Learn more

10-Day Weather Forecast

Advertisements
Track Severe Weather on mobile